createdAt,value
2024-04-21T00:01:50.143Z,57.56
2024-04-21T00:04:17.993Z,57.40
2024-04-21T00:06:46.101Z,57.34
2024-04-21T00:09:14.166Z,58.23
2024-04-21T00:11:43.368Z,57.46
2024-04-21T00:14:10.914Z,56.50
2024-04-21T00:16:38.613Z,57.69
2024-04-21T00:19:06.527Z,56.90
2024-04-21T00:21:35.927Z,57.40
2024-04-21T00:24:04.752Z,57.34
2024-04-21T00:26:32.205Z,57.70
2024-04-21T00:28:59.976Z,57.19
2024-04-21T00:31:28.220Z,57.58
2024-04-21T00:33:56.648Z,56.72
2024-04-21T00:36:24.725Z,57.70
2024-04-21T00:38:51.994Z,57.21
2024-04-21T00:41:19.209Z,57.09
2024-04-21T00:43:46.650Z,56.90
2024-04-21T00:46:14.050Z,57.52
2024-04-21T00:48:42.081Z,56.83
2024-04-21T00:51:10.102Z,56.94
2024-04-21T00:53:37.774Z,56.78
2024-04-21T00:56:07.713Z,56.71
2024-04-21T00:58:35.104Z,56.54
2024-04-21T01:01:03.463Z,57.13
2024-04-21T01:03:31.474Z,57.38
2024-04-21T01:05:58.692Z,55.94
2024-04-21T01:08:26.550Z,57.23
2024-04-21T01:10:53.812Z,56.18
2024-04-21T01:13:20.998Z,55.58
2024-04-21T01:15:53.603Z,56.59
2024-04-21T01:18:21.767Z,56.49
2024-04-21T01:20:49.488Z,56.45
2024-04-21T01:23:20.543Z,55.98
2024-04-21T01:25:48.266Z,56.00
2024-04-21T01:28:15.987Z,56.03
2024-04-21T01:30:43.134Z,56.40
2024-04-21T01:33:10.608Z,56.04
2024-04-21T01:35:38.175Z,55.88
2024-04-21T01:38:05.802Z,56.25
2024-04-21T01:40:33.211Z,55.63
2024-04-21T01:43:00.993Z,56.28
2024-04-21T01:45:28.526Z,55.90
2024-04-21T01:47:55.939Z,55.97
2024-04-21T01:50:25.063Z,55.50
2024-04-21T01:52:52.842Z,55.90
2024-04-21T01:55:20.124Z,55.21
2024-04-21T01:57:47.157Z,55.84
2024-04-21T02:00:14.660Z,55.74
2024-04-21T02:02:41.859Z,56.22
2024-04-21T02:05:09.285Z,56.40
2024-04-21T02:07:36.190Z,56.22
2024-04-21T02:10:03.401Z,56.55
2024-04-21T02:12:30.829Z,56.94
2024-04-21T02:14:57.913Z,56.36
2024-04-21T02:17:25.395Z,55.95
2024-04-21T02:19:52.433Z,56.16
2024-04-21T02:22:20.306Z,56.16
2024-04-21T02:24:48.294Z,57.51
2024-04-21T02:27:16.173Z,56.51
2024-04-21T02:29:43.803Z,57.01
2024-04-21T02:32:10.991Z,56.60
2024-04-21T02:34:38.581Z,56.36
2024-04-21T02:37:05.840Z,56.59
2024-04-21T02:39:33.187Z,56.14
2024-04-21T02:42:00.395Z,56.41
2024-04-21T02:44:27.259Z,56.24
2024-04-21T02:46:54.574Z,56.08
2024-04-21T02:49:22.820Z,56.13
2024-04-21T02:51:49.797Z,56.22
2024-04-21T02:54:17.478Z,56.38
2024-04-21T02:56:44.398Z,56.81
2024-04-21T02:59:11.590Z,56.52
2024-04-21T03:01:38.853Z,56.34
2024-04-21T03:04:06.337Z,55.95
2024-04-21T03:06:33.685Z,56.34
2024-04-21T03:09:01.527Z,56.42
2024-04-21T03:11:28.717Z,56.55
2024-04-21T03:13:56.242Z,56.24
2024-04-21T03:16:23.868Z,55.90
2024-04-21T03:18:51.222Z,55.48
2024-04-21T03:21:20.134Z,55.88
2024-04-21T03:23:52.461Z,56.03
2024-04-21T03:26:19.959Z,55.96
2024-04-21T03:28:47.218Z,55.91
2024-04-21T03:31:14.059Z,55.48
2024-04-21T03:33:40.959Z,56.18
2024-04-21T03:36:09.743Z,55.52
2024-04-21T03:38:38.460Z,55.52
2024-04-21T03:41:06.176Z,55.39
2024-04-21T03:43:33.817Z,55.46
2024-04-21T03:46:01.121Z,55.38
2024-04-21T03:48:28.719Z,55.24
2024-04-21T03:50:56.763Z,55.69
2024-04-21T03:53:24.244Z,55.33
2024-04-21T03:55:51.346Z,55.34
2024-04-21T03:58:18.606Z,55.96
2024-04-21T04:00:49.777Z,55.62
2024-04-21T04:03:17.842Z,55.36
2024-04-21T04:05:46.242Z,55.18
2024-04-21T04:08:22.681Z,55.43
2024-04-21T04:10:50.457Z,55.79
2024-04-21T04:13:18.763Z,56.31
2024-04-21T04:15:47.140Z,55.63
2024-04-21T04:18:14.329Z,55.58
2024-04-21T04:20:41.697Z,55.72
2024-04-21T04:23:08.701Z,55.79
2024-04-21T04:25:36.050Z,56.04
2024-04-21T04:28:03.176Z,56.06
2024-04-21T04:30:30.279Z,56.33
2024-04-21T04:32:57.440Z,55.98
2024-04-21T04:35:24.781Z,56.76
2024-04-21T04:37:55.210Z,56.27
2024-04-21T04:40:22.952Z,56.32
2024-04-21T04:42:50.156Z,56.61
2024-04-21T04:45:19.339Z,56.53
2024-04-21T04:47:46.586Z,56.81
2024-04-21T04:50:14.968Z,56.76
2024-04-21T04:52:42.909Z,56.94
2024-04-21T04:55:10.400Z,56.92
2024-04-21T04:57:38.277Z,56.66
2024-04-21T05:00:06.653Z,56.76
2024-04-21T05:02:35.002Z,57.00
2024-04-21T05:05:02.492Z,56.67
2024-04-21T05:07:29.834Z,56.58
2024-04-21T05:09:57.472Z,56.78
2024-04-21T05:12:24.528Z,56.80
2024-04-21T05:14:52.156Z,57.04
2024-04-21T05:17:19.901Z,56.90
2024-04-21T05:19:47.288Z,56.75
2024-04-21T05:22:14.365Z,56.96
2024-04-21T05:24:41.579Z,56.77
2024-04-21T05:27:09.178Z,56.69
2024-04-21T05:29:36.480Z,57.12
2024-04-21T05:32:04.284Z,56.88
2024-04-21T05:34:31.664Z,57.15
2024-04-21T05:36:58.994Z,56.92
2024-04-21T05:39:26.780Z,57.14
2024-04-21T05:41:54.470Z,57.39
2024-04-21T05:44:21.755Z,57.14
2024-04-21T05:46:49.560Z,57.14
2024-04-21T05:49:16.346Z,57.10
2024-04-21T05:51:43.715Z,57.36
2024-04-21T05:54:10.775Z,57.18
2024-04-21T05:56:38.805Z,57.02
2024-04-21T05:59:06.118Z,57.21
2024-04-21T06:01:33.827Z,56.84
2024-04-21T06:04:01.341Z,57.02
2024-04-21T06:06:29.251Z,57.10
2024-04-21T06:08:56.288Z,57.08
2024-04-21T06:11:23.282Z,57.12
2024-04-21T06:13:50.658Z,57.56
2024-04-21T06:16:18.072Z,56.92
2024-04-21T06:18:47.867Z,57.34
2024-04-21T06:21:16.553Z,57.30
2024-04-21T06:23:43.962Z,57.28
2024-04-21T06:26:11.778Z,57.20
2024-04-21T06:28:39.525Z,57.26
2024-04-21T06:31:07.139Z,57.30
2024-04-21T06:33:34.688Z,57.00
2024-04-21T06:36:02.029Z,57.28
2024-04-21T06:38:32.074Z,57.20
2024-04-21T06:40:59.447Z,57.14
2024-04-21T06:43:27.023Z,56.99
2024-04-21T06:45:54.257Z,57.04
2024-04-21T06:48:23.383Z,57.08
2024-04-21T06:50:50.908Z,57.07
2024-04-21T06:53:19.143Z,57.03
2024-04-21T06:55:46.497Z,57.09
2024-04-21T06:58:13.537Z,56.77
2024-04-21T07:00:41.679Z,56.93
2024-04-21T07:03:09.654Z,56.92
2024-04-21T07:05:37.991Z,56.74
2024-04-21T07:08:05.464Z,56.79
2024-04-21T07:10:33.050Z,56.83
2024-04-21T07:13:01.108Z,56.83
2024-04-21T07:15:29.272Z,56.77
2024-04-21T07:17:56.758Z,56.37
2024-04-21T07:20:24.430Z,56.16
2024-04-21T07:22:51.914Z,56.58
2024-04-21T07:25:24.819Z,56.52
2024-04-21T07:27:53.494Z,56.39
2024-04-21T07:30:21.028Z,56.40
2024-04-21T07:32:49.974Z,56.32
2024-04-21T07:35:17.754Z,55.93
2024-04-21T07:37:45.064Z,56.54
2024-04-21T07:40:15.579Z,56.47
2024-04-21T07:42:43.459Z,56.30
2024-04-21T07:45:11.013Z,55.96
2024-04-21T07:47:37.918Z,56.06
2024-04-21T07:50:05.818Z,56.08
2024-04-21T07:52:34.154Z,56.07
2024-04-21T07:55:02.906Z,55.88
2024-04-21T07:57:30.029Z,55.66
2024-04-21T07:59:57.678Z,55.68
2024-04-21T08:02:30.928Z,55.93
2024-04-21T08:04:58.846Z,55.61
2024-04-21T08:07:26.209Z,55.91
2024-04-21T08:09:53.646Z,55.93
2024-04-21T08:12:21.794Z,56.02
2024-04-21T08:14:49.420Z,55.82
2024-04-21T08:17:16.423Z,55.74
2024-04-21T08:19:43.636Z,55.64
2024-04-21T08:22:11.134Z,55.78
2024-04-21T08:24:39.361Z,55.68
2024-04-21T08:27:08.410Z,55.63
2024-04-21T08:29:35.607Z,55.79
2024-04-21T08:32:02.971Z,55.55
2024-04-21T08:34:30.100Z,55.36
2024-04-21T08:36:57.718Z,55.20
2024-04-21T08:39:25.077Z,54.83
2024-04-21T08:41:56.365Z,54.82
2024-04-21T08:44:24.361Z,55.03
2024-04-21T08:46:54.224Z,54.85
2024-04-21T08:49:23.807Z,54.87
2024-04-21T08:51:52.508Z,55.07
2024-04-21T08:54:20.269Z,55.29
2024-04-21T08:56:52.932Z,55.05
2024-04-21T08:59:25.311Z,54.96
2024-04-21T09:01:53.058Z,54.79
2024-04-21T09:04:21.822Z,54.51
2024-04-21T09:06:51.417Z,54.86
2024-04-21T09:09:21.280Z,54.86
2024-04-21T09:11:48.958Z,54.58
2024-04-21T09:14:16.286Z,54.75
2024-04-21T09:16:43.336Z,54.84
2024-04-21T09:19:10.488Z,54.82
2024-04-21T09:21:37.537Z,54.72
2024-04-21T09:24:05.680Z,54.41
2024-04-21T09:26:34.457Z,54.33
2024-04-21T09:29:03.449Z,54.01
2024-04-21T09:31:31.508Z,54.31
2024-04-21T09:33:58.860Z,54.35
2024-04-21T09:36:26.174Z,54.39
2024-04-21T09:38:56.093Z,54.07
2024-04-21T09:41:26.042Z,53.82
2024-04-21T09:43:55.804Z,54.56
2024-04-21T09:46:23.702Z,53.88
2024-04-21T09:48:51.494Z,54.24
2024-04-21T09:51:20.262Z,53.73
2024-04-21T09:53:49.476Z,55.16
2024-04-21T09:56:21.891Z,56.92
2024-04-21T09:58:52.506Z,56.49
2024-04-21T10:01:37.177Z,55.88
2024-04-21T10:04:07.024Z,55.41
2024-04-21T10:06:34.671Z,54.93
2024-04-21T10:09:02.849Z,54.57
2024-04-21T10:11:30.499Z,54.53
2024-04-21T10:14:01.194Z,54.48
2024-04-21T10:16:31.756Z,54.28
2024-04-21T10:19:06.844Z,53.76
2024-04-21T10:21:35.831Z,53.52
2024-04-21T10:24:05.242Z,53.30
2024-04-21T10:26:32.461Z,53.55
2024-04-21T10:29:11.068Z,53.50
2024-04-21T10:31:38.748Z,53.86
2024-04-21T10:34:06.955Z,53.30
2024-04-21T10:36:45.233Z,53.33
2024-04-21T10:39:12.709Z,53.50
2024-04-21T10:41:44.644Z,52.26
2024-04-21T10:44:12.963Z,53.13
2024-04-21T10:46:40.499Z,52.88
2024-04-21T10:49:07.984Z,52.22
2024-04-21T10:51:36.227Z,53.19
2024-04-21T10:54:03.584Z,53.16
2024-04-21T10:56:31.308Z,52.84
2024-04-21T10:58:58.981Z,52.83
2024-04-21T11:01:28.761Z,52.79
2024-04-21T11:03:56.363Z,52.17
2024-04-21T11:06:24.123Z,52.30
2024-04-21T11:08:51.448Z,52.00
2024-04-21T11:11:18.879Z,52.41
2024-04-21T11:13:46.308Z,52.66
2024-04-21T11:16:14.039Z,51.60
2024-04-21T11:18:41.651Z,51.41
2024-04-21T11:21:09.433Z,52.91
2024-04-21T11:23:36.810Z,52.32
2024-04-21T11:26:04.028Z,52.54
2024-04-21T11:28:31.257Z,52.35
2024-04-21T11:31:07.093Z,56.22
2024-04-21T11:33:36.221Z,56.99
2024-04-21T11:36:06.789Z,57.15
2024-04-21T11:38:34.296Z,56.62
2024-04-21T11:41:01.950Z,56.10
2024-04-21T11:43:33.304Z,56.06
2024-04-21T11:46:03.719Z,56.54
2024-04-21T11:48:33.268Z,55.50
2024-04-21T11:51:01.048Z,56.38
2024-04-21T11:53:28.336Z,55.48
2024-04-21T11:55:56.137Z,55.50
2024-04-21T11:58:24.668Z,55.65
2024-04-21T12:00:52.183Z,55.68
2024-04-21T12:03:19.604Z,55.22
2024-04-21T12:05:48.220Z,54.49
2024-04-21T12:08:15.464Z,55.49
2024-04-21T12:10:43.493Z,54.73
2024-04-21T12:13:10.926Z,54.99
2024-04-21T12:15:38.585Z,54.69
2024-04-21T12:18:10.626Z,54.96
2024-04-21T12:20:38.679Z,54.44
2024-04-21T12:23:08.499Z,54.32
2024-04-21T12:25:35.941Z,54.25
2024-04-21T12:28:04.103Z,53.58
2024-04-21T12:30:31.589Z,54.52
2024-04-21T12:32:59.115Z,53.73
2024-04-21T12:35:26.599Z,54.27
2024-04-21T12:37:54.393Z,53.21
2024-04-21T12:40:21.971Z,53.97
2024-04-21T12:42:52.311Z,53.95
2024-04-21T12:45:20.915Z,53.68
2024-04-21T12:47:48.431Z,54.75
2024-04-21T12:50:15.737Z,54.75
2024-04-21T12:52:43.505Z,54.43
2024-04-21T12:55:10.792Z,53.45
2024-04-21T12:57:38.110Z,53.77
2024-04-21T13:00:06.386Z,53.12
2024-04-21T13:02:33.930Z,53.38
2024-04-21T13:05:01.312Z,53.29
2024-04-21T13:07:28.625Z,52.78
2024-04-21T13:09:56.432Z,53.10
2024-04-21T13:12:23.762Z,53.10
2024-04-21T13:14:55.428Z,52.76
2024-04-21T13:17:22.900Z,52.67
2024-04-21T13:19:50.346Z,53.21
2024-04-21T13:22:17.989Z,53.66
2024-04-21T13:24:45.253Z,52.68
2024-04-21T13:27:13.650Z,52.92
2024-04-21T13:29:43.270Z,53.15
2024-04-21T13:32:13.814Z,49.56
2024-04-21T13:34:41.068Z,52.76
2024-04-21T13:37:08.824Z,52.27
2024-04-21T13:39:36.000Z,51.66
2024-04-21T13:42:03.628Z,50.54
2024-04-21T13:44:31.164Z,54.03
2024-04-21T13:46:59.073Z,56.49
2024-04-21T13:49:26.030Z,57.31
2024-04-21T13:51:53.131Z,56.50
2024-04-21T13:54:20.548Z,58.02
2024-04-21T13:56:47.551Z,60.26
2024-04-21T13:59:14.833Z,59.99
2024-04-21T14:01:42.221Z,61.34
2024-04-21T14:04:11.933Z,57.17
2024-04-21T14:06:39.086Z,56.94
2024-04-21T14:09:07.111Z,59.41
2024-04-21T14:11:35.615Z,57.74
2024-04-21T14:14:02.683Z,58.00
2024-04-21T14:16:32.451Z,60.39
2024-04-21T14:19:01.407Z,60.16
2024-04-21T14:21:29.094Z,59.31
2024-04-21T14:24:00.615Z,59.46
2024-04-21T14:26:29.558Z,60.22
2024-04-21T14:28:56.830Z,60.18
2024-04-21T14:31:24.091Z,54.31
2024-04-21T14:33:51.621Z,59.36
2024-04-21T14:36:19.563Z,57.93
2024-04-21T14:38:47.114Z,60.20
2024-04-21T14:41:16.214Z,62.18
2024-04-21T14:43:43.772Z,62.48
2024-04-21T14:46:11.390Z,60.10
2024-04-21T14:48:38.429Z,55.31
2024-04-21T14:51:07.680Z,57.32
2024-04-21T14:53:35.134Z,55.29
2024-04-21T14:56:06.724Z,54.04
2024-04-21T14:58:34.059Z,56.19
2024-04-21T15:01:01.677Z,59.81
2024-04-21T15:03:29.277Z,62.40
2024-04-21T15:05:56.698Z,63.42
2024-04-21T15:08:23.781Z,62.75
2024-04-21T15:10:51.722Z,62.78
2024-04-21T15:13:18.721Z,62.86
2024-04-21T15:15:46.315Z,62.12
2024-04-21T15:18:13.113Z,61.02
2024-04-21T15:20:40.793Z,62.29
2024-04-21T15:23:08.244Z,61.45
2024-04-21T15:25:35.588Z,62.90
2024-04-21T15:28:03.209Z,63.42
2024-04-21T15:30:30.671Z,63.18
2024-04-21T15:32:58.104Z,61.68
2024-04-21T15:35:25.279Z,62.90
2024-04-21T15:37:52.912Z,61.70
2024-04-21T15:40:20.217Z,62.20
2024-04-21T15:42:47.492Z,63.56
2024-04-21T15:45:17.717Z,62.99
2024-04-21T15:47:48.220Z,61.77
2024-04-21T15:50:15.337Z,62.24
2024-04-21T15:52:42.581Z,62.38
2024-04-21T15:55:13.256Z,62.66
2024-04-21T15:57:40.409Z,62.62
2024-04-21T16:00:08.225Z,62.60
2024-04-21T16:02:37.742Z,64.10
2024-04-21T16:05:07.099Z,63.59
2024-04-21T16:07:34.621Z,64.27
2024-04-21T16:10:03.253Z,64.16
2024-04-21T16:12:30.671Z,62.74
2024-04-21T16:14:58.286Z,61.56
2024-04-21T16:17:25.792Z,63.13
2024-04-21T16:19:53.000Z,63.53
2024-04-21T16:22:20.555Z,62.10
2024-04-21T16:24:47.966Z,64.16
2024-04-21T16:27:15.929Z,62.04
2024-04-21T16:29:43.296Z,62.85
2024-04-21T16:32:10.707Z,63.12
2024-04-21T16:34:39.720Z,62.78
2024-04-21T16:37:08.350Z,58.41
2024-04-21T16:39:36.485Z,55.30
2024-04-21T16:42:04.229Z,53.41
2024-04-21T16:44:32.287Z,53.14
2024-04-21T16:47:00.170Z,54.07
2024-04-21T16:49:28.971Z,54.39
2024-04-21T16:51:58.096Z,57.64
2024-04-21T16:54:25.789Z,53.45
2024-04-21T16:57:03.144Z,58.02
2024-04-21T16:59:38.341Z,53.81
2024-04-21T17:02:06.099Z,54.65
2024-04-21T17:04:33.922Z,53.64
2024-04-21T17:07:02.115Z,54.39
2024-04-21T17:09:30.197Z,56.98
2024-04-21T17:11:59.120Z,57.48
2024-04-21T17:14:26.357Z,60.86
2024-04-21T17:16:54.219Z,59.22
2024-04-21T17:19:25.220Z,58.73
2024-04-21T17:21:52.580Z,58.94
2024-04-21T17:24:19.875Z,58.76
2024-04-21T17:26:47.015Z,60.40
2024-04-21T17:29:14.494Z,55.14
2024-04-21T17:31:41.502Z,58.36
2024-04-21T17:34:08.595Z,60.02
2024-04-21T17:36:36.113Z,59.40
2024-04-21T17:39:04.442Z,58.95
2024-04-21T17:41:33.596Z,58.58
2024-04-21T17:44:01.814Z,58.44
2024-04-21T17:46:29.704Z,58.43
2024-04-21T17:48:56.671Z,59.83
2024-04-21T17:51:24.217Z,59.94
2024-04-21T17:53:51.196Z,59.58
2024-04-21T17:56:18.375Z,59.52
2024-04-21T18:01:32.057Z,59.31
2024-04-21T18:04:01.224Z,59.62
2024-04-21T18:06:29.801Z,60.20
2024-04-21T18:08:57.139Z,59.97
2024-04-21T18:11:26.702Z,60.27
2024-04-21T18:13:53.831Z,59.84
2024-04-21T18:16:21.225Z,59.20
2024-04-21T18:18:49.011Z,60.54
2024-04-21T18:21:16.126Z,59.19
2024-04-21T18:23:43.427Z,60.05
2024-04-21T18:26:11.176Z,58.41
2024-04-21T18:28:38.675Z,60.34
2024-04-21T18:31:06.821Z,58.53
2024-04-21T18:33:35.029Z,61.12
2024-04-21T18:36:02.700Z,61.22
2024-04-21T18:38:29.796Z,60.18
2024-04-21T18:40:56.735Z,59.72
2024-04-21T18:43:23.978Z,58.82
2024-04-21T18:45:51.246Z,60.56
2024-04-21T18:48:18.361Z,60.81
2024-04-21T18:50:46.693Z,60.22
2024-04-21T18:53:17.645Z,59.62
2024-04-21T18:55:44.989Z,60.17
2024-04-21T18:58:12.978Z,58.53
2024-04-21T19:00:40.741Z,59.97
2024-04-21T19:03:07.906Z,59.98
2024-04-21T19:05:37.869Z,59.92
2024-04-21T19:08:08.284Z,59.63
2024-04-21T19:10:38.345Z,60.28
2024-04-21T19:13:06.557Z,60.24
2024-04-21T19:15:34.980Z,60.41
2024-04-21T19:18:02.940Z,59.98
2024-04-21T19:20:30.903Z,60.04
2024-04-21T19:22:58.344Z,60.18
2024-04-21T19:25:27.581Z,60.21
2024-04-21T19:27:55.251Z,60.60
2024-04-21T19:30:22.945Z,60.05
2024-04-21T19:32:50.780Z,60.78
2024-04-21T19:35:18.172Z,60.36
2024-04-21T19:37:45.338Z,59.66
2024-04-21T19:40:12.389Z,60.16
2024-04-21T19:42:42.501Z,59.94
2024-04-21T19:45:10.333Z,60.90
2024-04-21T19:47:37.868Z,60.81
2024-04-21T19:50:07.087Z,59.88
2024-04-21T19:52:37.320Z,60.60
2024-04-21T19:55:06.603Z,59.52
2024-04-21T19:57:34.201Z,59.89
2024-04-21T20:00:02.059Z,59.86
2024-04-21T20:02:29.284Z,59.93
2024-04-21T20:04:57.995Z,60.53
2024-04-21T20:07:25.247Z,60.02
2024-04-21T20:09:58.455Z,60.30
2024-04-21T20:12:27.503Z,59.97
2024-04-21T20:15:13.060Z,59.43
2024-04-21T20:17:58.516Z,59.46
2024-04-21T20:20:25.993Z,59.72
2024-04-21T20:22:53.194Z,59.30
2024-04-21T20:25:20.546Z,59.06
2024-04-21T20:27:49.000Z,58.86
2024-04-21T20:30:16.229Z,59.15
2024-04-21T20:32:43.617Z,59.67
2024-04-21T20:35:10.754Z,58.94
2024-04-21T20:37:38.184Z,59.75
2024-04-21T20:40:06.196Z,59.56
2024-04-21T20:42:34.218Z,59.38
2024-04-21T20:45:01.649Z,58.91
2024-04-21T20:47:28.865Z,58.64
2024-04-21T20:49:56.010Z,58.70
2024-04-21T20:52:23.075Z,59.37
2024-04-21T20:54:50.106Z,59.02
2024-04-21T20:57:17.533Z,59.42
2024-04-21T20:59:46.914Z,59.16
2024-04-21T21:02:14.176Z,58.90
2024-04-21T21:04:41.800Z,58.76
2024-04-21T21:07:09.060Z,58.66
2024-04-21T21:09:36.454Z,58.88
2024-04-21T21:12:03.964Z,59.25
2024-04-21T21:14:31.860Z,59.02
2024-04-21T21:16:59.532Z,59.71
2024-04-21T21:19:26.824Z,59.01
2024-04-21T21:21:53.774Z,59.06
2024-04-21T21:24:21.160Z,58.79
2024-04-21T21:26:48.114Z,58.58
2024-04-21T21:29:15.307Z,59.14
2024-04-21T21:31:42.645Z,59.09
2024-04-21T21:34:10.057Z,58.74
2024-04-21T21:36:37.964Z,59.06
2024-04-21T21:39:05.336Z,59.50
2024-04-21T21:41:33.246Z,59.50
2024-04-21T21:44:00.626Z,59.10
2024-04-21T21:46:28.599Z,59.14
2024-04-21T21:48:56.605Z,58.74
2024-04-21T21:51:24.805Z,58.68
2024-04-21T21:53:52.950Z,58.77
2024-04-21T21:56:20.246Z,58.62
2024-04-21T21:58:47.330Z,58.84
2024-04-21T22:01:14.752Z,58.31
2024-04-21T22:03:42.418Z,57.23
2024-04-21T22:06:10.966Z,58.29
2024-04-21T22:08:38.500Z,58.46
2024-04-21T22:11:06.115Z,58.24
2024-04-21T22:13:33.330Z,57.96
2024-04-21T22:16:06.323Z,57.68
2024-04-21T22:18:33.818Z,57.92
2024-04-21T22:21:01.213Z,58.08
2024-04-21T22:23:28.279Z,57.13
2024-04-21T22:25:55.216Z,57.88
2024-04-21T22:28:22.852Z,57.61
2024-04-21T22:30:51.143Z,57.80
2024-04-21T22:33:20.319Z,57.19
2024-04-21T22:35:55.704Z,57.97
2024-04-21T22:38:23.432Z,57.41
2024-04-21T22:41:01.911Z,57.28
2024-04-21T22:43:30.158Z,57.34
2024-04-21T22:46:05.205Z,57.35
2024-04-21T22:48:34.782Z,56.76
2024-04-21T22:51:03.043Z,57.30
2024-04-21T22:53:30.317Z,57.02
2024-04-21T22:55:58.612Z,57.20
2024-04-21T22:58:25.871Z,57.11
2024-04-21T23:00:54.013Z,57.46
2024-04-21T23:03:21.158Z,57.28
2024-04-21T23:05:48.573Z,57.30
2024-04-21T23:08:16.310Z,57.08
2024-04-21T23:10:43.303Z,57.22
2024-04-21T23:13:11.215Z,57.40
2024-04-21T23:15:38.219Z,57.46
2024-04-21T23:18:05.967Z,57.38
2024-04-21T23:20:33.211Z,57.26
2024-04-21T23:23:01.647Z,56.85
2024-04-21T23:25:29.627Z,56.82
2024-04-21T23:27:56.942Z,57.14
2024-04-21T23:30:24.394Z,57.17
2024-04-21T23:32:51.573Z,57.03
2024-04-21T23:35:19.016Z,57.01
2024-04-21T23:37:46.290Z,57.10
2024-04-21T23:40:13.722Z,57.08
2024-04-21T23:42:41.791Z,56.58
2024-04-21T23:45:10.691Z,57.17
2024-04-21T23:47:42.929Z,57.44
2024-04-21T23:50:10.924Z,57.07
2024-04-21T23:52:38.407Z,56.97
2024-04-21T23:55:05.818Z,56.62
2024-04-21T23:57:33.050Z,56.70
